sensor_id;sensor_type;location;lat;lon;timestamp;temperature;humidity
35682;DHT22;21805;51.022;4.782;2023-07-02T00:00:36;18.60;99.90
35682;DHT22;21805;51.022;4.782;2023-07-02T00:03:03;18.60;99.90
35682;DHT22;21805;51.022;4.782;2023-07-02T00:05:29;18.60;99.90
35682;DHT22;21805;51.022;4.782;2023-07-02T00:07:55;18.60;99.90
35682;DHT22;21805;51.022;4.782;2023-07-02T00:10:20;18.70;99.90
35682;DHT22;21805;51.022;4.782;2023-07-02T00:12:46;18.70;99.90
35682;DHT22;21805;51.022;4.782;2023-07-02T00:15:12;18.60;99.90
35682;DHT22;21805;51.022;4.782;2023-07-02T00:17:37;18.60;99.90
35682;DHT22;21805;51.022;4.782;2023-07-02T00:20:08;18.60;99.90
35682;DHT22;21805;51.022;4.782;2023-07-02T00:22:40;18.70;99.90
35682;DHT22;21805;51.022;4.782;2023-07-02T00:25:07;18.60;99.90
35682;DHT22;21805;51.022;4.782;2023-07-02T00:27:33;18.60;99.90
35682;DHT22;21805;51.022;4.782;2023-07-02T00:29:58;18.60;99.90
35682;DHT22;21805;51.022;4.782;2023-07-02T00:32:24;18.60;99.90
35682;DHT22;21805;51.022;4.782;2023-07-02T00:34:49;18.60;99.90
35682;DHT22;21805;51.022;4.782;2023-07-02T00:37:15;18.60;99.90
35682;DHT22;21805;51.022;4.782;2023-07-02T00:39:41;18.60;99.90
35682;DHT22;21805;51.022;4.782;2023-07-02T00:42:06;18.60;99.90
35682;DHT22;21805;51.022;4.782;2023-07-02T00:44:33;18.60;99.90
35682;DHT22;21805;51.022;4.782;2023-07-02T00:47:09;18.60;99.90
35682;DHT22;21805;51.022;4.782;2023-07-02T00:49:35;18.50;99.90
35682;DHT22;21805;51.022;4.782;2023-07-02T00:52:00;18.40;99.90
35682;DHT22;21805;51.022;4.782;2023-07-02T00:54:30;18.50;99.90
35682;DHT22;21805;51.022;4.782;2023-07-02T00:56:55;18.50;99.90
35682;DHT22;21805;51.022;4.782;2023-07-02T00:59:21;18.60;99.90
35682;DHT22;21805;51.022;4.782;2023-07-02T01:01:47;18.50;99.90
35682;DHT22;21805;51.022;4.782;2023-07-02T01:04:18;18.50;99.90
35682;DHT22;21805;51.022;4.782;2023-07-02T01:06:44;18.40;99.90
35682;DHT22;21805;51.022;4.782;2023-07-02T01:09:10;18.50;99.90
35682;DHT22;21805;51.022;4.782;2023-07-02T01:11:38;18.50;99.90
35682;DHT22;21805;51.022;4.782;2023-07-02T01:14:05;18.50;99.90
35682;DHT22;21805;51.022;4.782;2023-07-02T01:16:32;18.50;99.90
35682;DHT22;21805;51.022;4.782;2023-07-02T01:18:59;18.40;99.90
35682;DHT22;21805;51.022;4.782;2023-07-02T01:21:28;18.40;99.90
35682;DHT22;21805;51.022;4.782;2023-07-02T01:23:55;18.40;99.90
35682;DHT22;21805;51.022;4.782;2023-07-02T01:26:20;18.20;99.90
35682;DHT22;21805;51.022;4.782;2023-07-02T01:28:46;18.20;99.90
35682;DHT22;21805;51.022;4.782;2023-07-02T01:31:12;18.20;99.90
35682;DHT22;21805;51.022;4.782;2023-07-02T01:33:37;18.20;99.90
35682;DHT22;21805;51.022;4.782;2023-07-02T01:36:03;18.20;99.90
35682;DHT22;21805;51.022;4.782;2023-07-02T01:38:29;18.20;99.90
35682;DHT22;21805;51.022;4.782;2023-07-02T01:40:54;18.20;99.90
35682;DHT22;21805;51.022;4.782;2023-07-02T01:43:20;18.20;99.90
35682;DHT22;21805;51.022;4.782;2023-07-02T01:45:46;18.10;99.90
35682;DHT22;21805;51.022;4.782;2023-07-02T01:48:11;18.20;99.90
35682;DHT22;21805;51.022;4.782;2023-07-02T01:50:37;18.20;99.90
35682;DHT22;21805;51.022;4.782;2023-07-02T01:53:02;18.20;99.90
35682;DHT22;21805;51.022;4.782;2023-07-02T01:55:28;18.30;99.90
35682;DHT22;21805;51.022;4.782;2023-07-02T01:57:53;18.20;99.90
35682;DHT22;21805;51.022;4.782;2023-07-02T02:00:19;18.30;99.90
35682;DHT22;21805;51.022;4.782;2023-07-02T02:02:45;18.20;99.90
35682;DHT22;21805;51.022;4.782;2023-07-02T02:05:11;18.20;99.90
35682;DHT22;21805;51.022;4.782;2023-07-02T02:07:37;18.20;99.90
35682;DHT22;21805;51.022;4.782;2023-07-02T02:10:03;18.20;99.90
35682;DHT22;21805;51.022;4.782;2023-07-02T02:12:29;18.30;99.90
35682;DHT22;21805;51.022;4.782;2023-07-02T02:14:55;18.30;99.90
35682;DHT22;21805;51.022;4.782;2023-07-02T02:17:21;18.40;99.90
35682;DHT22;21805;51.022;4.782;2023-07-02T02:19:49;18.40;99.90
35682;DHT22;21805;51.022;4.782;2023-07-02T02:22:14;18.30;99.90
35682;DHT22;21805;51.022;4.782;2023-07-02T02:24:41;18.30;99.90
35682;DHT22;21805;51.022;4.782;2023-07-02T02:27:07;18.30;99.90
35682;DHT22;21805;51.022;4.782;2023-07-02T02:29:32;18.30;99.90
35682;DHT22;21805;51.022;4.782;2023-07-02T02:31:58;18.20;99.90
35682;DHT22;21805;51.022;4.782;2023-07-02T02:34:23;18.20;99.90
35682;DHT22;21805;51.022;4.782;2023-07-02T02:36:49;18.20;99.90
35682;DHT22;21805;51.022;4.782;2023-07-02T02:39:16;18.20;99.90
35682;DHT22;21805;51.022;4.782;2023-07-02T02:41:42;18.20;99.90
35682;DHT22;21805;51.022;4.782;2023-07-02T02:44:08;18.20;99.90
35682;DHT22;21805;51.022;4.782;2023-07-02T02:46:34;18.20;99.90
35682;DHT22;21805;51.022;4.782;2023-07-02T02:48:59;18.20;99.90
35682;DHT22;21805;51.022;4.782;2023-07-02T02:51:25;18.20;99.90
35682;DHT22;21805;51.022;4.782;2023-07-02T02:53:50;18.10;99.90
35682;DHT22;21805;51.022;4.782;2023-07-02T02:56:16;18.10;99.90
35682;DHT22;21805;51.022;4.782;2023-07-02T02:58:41;18.00;99.90
35682;DHT22;21805;51.022;4.782;2023-07-02T03:01:07;18.00;99.90
35682;DHT22;21805;51.022;4.782;2023-07-02T03:03:39;17.90;99.90
35682;DHT22;21805;51.022;4.782;2023-07-02T03:06:05;18.00;99.90
35682;DHT22;21805;51.022;4.782;2023-07-02T03:08:31;18.00;99.90
35682;DHT22;21805;51.022;4.782;2023-07-02T03:10:57;17.90;99.90
35682;DHT22;21805;51.022;4.782;2023-07-02T03:13:22;18.00;99.90
35682;DHT22;21805;51.022;4.782;2023-07-02T03:15:48;18.00;99.90
35682;DHT22;21805;51.022;4.782;2023-07-02T03:18:14;17.90;99.90
35682;DHT22;21805;51.022;4.782;2023-07-02T03:20:39;17.90;99.90
35682;DHT22;21805;51.022;4.782;2023-07-02T03:23:05;17.90;99.90
35682;DHT22;21805;51.022;4.782;2023-07-02T03:25:30;17.80;99.90
35682;DHT22;21805;51.022;4.782;2023-07-02T03:27:56;17.80;99.90
35682;DHT22;21805;51.022;4.782;2023-07-02T03:30:21;17.80;99.90
35682;DHT22;21805;51.022;4.782;2023-07-02T03:32:47;17.80;99.90
35682;DHT22;21805;51.022;4.782;2023-07-02T03:35:14;17.80;99.90
35682;DHT22;21805;51.022;4.782;2023-07-02T03:37:39;17.70;99.90
35682;DHT22;21805;51.022;4.782;2023-07-02T03:40:09;17.70;99.90
35682;DHT22;21805;51.022;4.782;2023-07-02T03:42:34;17.70;99.90
35682;DHT22;21805;51.022;4.782;2023-07-02T03:45:01;17.70;99.90
35682;DHT22;21805;51.022;4.782;2023-07-02T03:47:28;17.70;99.90
35682;DHT22;21805;51.022;4.782;2023-07-02T03:49:54;17.70;99.90
35682;DHT22;21805;51.022;4.782;2023-07-02T03:52:19;17.70;99.90
35682;DHT22;21805;51.022;4.782;2023-07-02T03:54:45;17.70;99.90
35682;DHT22;21805;51.022;4.782;2023-07-02T03:57:11;17.70;99.90
35682;DHT22;21805;51.022;4.782;2023-07-02T03:59:36;17.70;99.90
35682;DHT22;21805;51.022;4.782;2023-07-02T04:02:02;17.70;99.90
35682;DHT22;21805;51.022;4.782;2023-07-02T04:04:27;17.70;99.90
35682;DHT22;21805;51.022;4.782;2023-07-02T04:06:53;17.70;99.90
35682;DHT22;21805;51.022;4.782;2023-07-02T04:09:18;17.70;99.90
35682;DHT22;21805;51.022;4.782;2023-07-02T04:11:44;17.70;99.90
35682;DHT22;21805;51.022;4.782;2023-07-02T04:14:09;17.70;99.90
35682;DHT22;21805;51.022;4.782;2023-07-02T04:16:35;17.70;99.90
35682;DHT22;21805;51.022;4.782;2023-07-02T04:19:01;17.70;99.90
35682;DHT22;21805;51.022;4.782;2023-07-02T04:21:26;17.70;99.90
35682;DHT22;21805;51.022;4.782;2023-07-02T04:23:52;17.80;99.90
35682;DHT22;21805;51.022;4.782;2023-07-02T04:26:18;17.80;99.90
35682;DHT22;21805;51.022;4.782;2023-07-02T04:28:43;17.80;99.90
35682;DHT22;21805;51.022;4.782;2023-07-02T04:31:09;17.90;99.90
35682;DHT22;21805;51.022;4.782;2023-07-02T04:33:34;17.80;99.90
35682;DHT22;21805;51.022;4.782;2023-07-02T04:36:02;17.80;99.90
35682;DHT22;21805;51.022;4.782;2023-07-02T04:38:28;17.90;99.90
35682;DHT22;21805;51.022;4.782;2023-07-02T04:40:53;17.90;99.90
35682;DHT22;21805;51.022;4.782;2023-07-02T04:43:19;17.90;99.90
35682;DHT22;21805;51.022;4.782;2023-07-02T04:45:44;17.90;99.90
35682;DHT22;21805;51.022;4.782;2023-07-02T04:48:10;18.00;99.90
35682;DHT22;21805;51.022;4.782;2023-07-02T04:50:36;18.00;99.90
35682;DHT22;21805;51.022;4.782;2023-07-02T04:53:01;18.10;99.90
35682;DHT22;21805;51.022;4.782;2023-07-02T04:55:28;18.10;99.90
35682;DHT22;21805;51.022;4.782;2023-07-02T04:57:54;18.20;99.90
35682;DHT22;21805;51.022;4.782;2023-07-02T05:00:19;18.20;99.90
35682;DHT22;21805;51.022;4.782;2023-07-02T05:02:45;18.20;99.90
35682;DHT22;21805;51.022;4.782;2023-07-02T05:05:10;18.30;99.90
35682;DHT22;21805;51.022;4.782;2023-07-02T05:07:36;18.30;99.90
35682;DHT22;21805;51.022;4.782;2023-07-02T05:10:02;18.40;99.90
35682;DHT22;21805;51.022;4.782;2023-07-02T05:12:28;18.40;99.90
35682;DHT22;21805;51.022;4.782;2023-07-02T05:14:55;18.50;99.90
35682;DHT22;21805;51.022;4.782;2023-07-02T05:17:20;18.60;99.90
35682;DHT22;21805;51.022;4.782;2023-07-02T05:19:47;18.70;99.90
35682;DHT22;21805;51.022;4.782;2023-07-02T05:22:12;18.80;99.90
35682;DHT22;21805;51.022;4.782;2023-07-02T05:24:38;18.90;99.90
35682;DHT22;21805;51.022;4.782;2023-07-02T05:27:06;18.90;99.90
35682;DHT22;21805;51.022;4.782;2023-07-02T05:29:31;18.90;99.90
35682;DHT22;21805;51.022;4.782;2023-07-02T05:31:57;19.00;99.90
35682;DHT22;21805;51.022;4.782;2023-07-02T05:34:22;19.10;99.90
35682;DHT22;21805;51.022;4.782;2023-07-02T05:36:48;19.20;99.90
35682;DHT22;21805;51.022;4.782;2023-07-02T05:39:14;19.20;99.90
35682;DHT22;21805;51.022;4.782;2023-07-02T05:41:40;19.10;99.90
35682;DHT22;21805;51.022;4.782;2023-07-02T05:44:05;19.10;99.90
35682;DHT22;21805;51.022;4.782;2023-07-02T05:46:32;19.20;99.90
35682;DHT22;21805;51.022;4.782;2023-07-02T05:48:58;19.30;99.90
35682;DHT22;21805;51.022;4.782;2023-07-02T05:51:25;19.30;99.90
35682;DHT22;21805;51.022;4.782;2023-07-02T05:53:51;19.40;99.90
35682;DHT22;21805;51.022;4.782;2023-07-02T05:56:17;19.40;99.90
35682;DHT22;21805;51.022;4.782;2023-07-02T05:58:42;19.40;99.90
35682;DHT22;21805;51.022;4.782;2023-07-02T06:01:08;19.40;99.90
35682;DHT22;21805;51.022;4.782;2023-07-02T06:03:33;19.50;99.90
35682;DHT22;21805;51.022;4.782;2023-07-02T06:05:59;19.50;99.90
35682;DHT22;21805;51.022;4.782;2023-07-02T06:08:25;19.60;99.90
35682;DHT22;21805;51.022;4.782;2023-07-02T06:10:50;19.50;99.90
35682;DHT22;21805;51.022;4.782;2023-07-02T06:13:16;19.50;99.90
35682;DHT22;21805;51.022;4.782;2023-07-02T06:15:41;19.60;99.90
35682;DHT22;21805;51.022;4.782;2023-07-02T06:18:07;19.60;99.90
35682;DHT22;21805;51.022;4.782;2023-07-02T06:20:33;19.50;99.90
35682;DHT22;21805;51.022;4.782;2023-07-02T06:22:58;19.50;99.90
35682;DHT22;21805;51.022;4.782;2023-07-02T06:25:24;19.50;99.90
35682;DHT22;21805;51.022;4.782;2023-07-02T06:27:50;19.50;99.90
35682;DHT22;21805;51.022;4.782;2023-07-02T06:30:15;19.50;99.90
35682;DHT22;21805;51.022;4.782;2023-07-02T06:32:41;19.50;99.90
35682;DHT22;21805;51.022;4.782;2023-07-02T06:35:07;19.50;99.90
35682;DHT22;21805;51.022;4.782;2023-07-02T06:37:32;19.50;99.90
35682;DHT22;21805;51.022;4.782;2023-07-02T06:39:58;19.50;99.90
35682;DHT22;21805;51.022;4.782;2023-07-02T06:42:25;19.50;99.90
35682;DHT22;21805;51.022;4.782;2023-07-02T06:44:51;19.60;99.90
35682;DHT22;21805;51.022;4.782;2023-07-02T06:47:16;19.80;99.90
35682;DHT22;21805;51.022;4.782;2023-07-02T06:49:42;19.80;99.90
35682;DHT22;21805;51.022;4.782;2023-07-02T06:52:08;19.90;99.90
35682;DHT22;21805;51.022;4.782;2023-07-02T06:54:33;19.80;99.90
35682;DHT22;21805;51.022;4.782;2023-07-02T06:57:00;19.90;99.90
35682;DHT22;21805;51.022;4.782;2023-07-02T06:59:26;19.90;99.90
35682;DHT22;21805;51.022;4.782;2023-07-02T07:01:52;20.10;99.90
35682;DHT22;21805;51.022;4.782;2023-07-02T07:04:18;20.30;99.90
35682;DHT22;21805;51.022;4.782;2023-07-02T07:06:43;20.50;99.90
35682;DHT22;21805;51.022;4.782;2023-07-02T07:09:09;20.70;99.90
35682;DHT22;21805;51.022;4.782;2023-07-02T07:11:35;20.80;99.90
35682;DHT22;21805;51.022;4.782;2023-07-02T07:14:00;20.60;99.90
35682;DHT22;21805;51.022;4.782;2023-07-02T07:16:26;20.70;99.90
35682;DHT22;21805;51.022;4.782;2023-07-02T07:18:52;20.70;99.90
35682;DHT22;21805;51.022;4.782;2023-07-02T07:21:17;20.70;99.90
35682;DHT22;21805;51.022;4.782;2023-07-02T07:23:43;20.60;99.90
35682;DHT22;21805;51.022;4.782;2023-07-02T07:26:09;20.70;99.90
35682;DHT22;21805;51.022;4.782;2023-07-02T07:28:34;20.70;99.90
35682;DHT22;21805;51.022;4.782;2023-07-02T07:31:00;20.80;99.90
35682;DHT22;21805;51.022;4.782;2023-07-02T07:33:26;20.70;99.90
35682;DHT22;21805;51.022;4.782;2023-07-02T07:35:52;20.70;99.90
35682;DHT22;21805;51.022;4.782;2023-07-02T07:38:18;20.70;99.90
35682;DHT22;21805;51.022;4.782;2023-07-02T07:40:43;20.70;99.90
35682;DHT22;21805;51.022;4.782;2023-07-02T07:43:09;20.80;99.90
35682;DHT22;21805;51.022;4.782;2023-07-02T07:45:34;20.90;99.90
35682;DHT22;21805;51.022;4.782;2023-07-02T07:48:01;21.00;99.90
35682;DHT22;21805;51.022;4.782;2023-07-02T07:50:27;21.10;99.90
35682;DHT22;21805;51.022;4.782;2023-07-02T07:52:53;21.00;99.90
35682;DHT22;21805;51.022;4.782;2023-07-02T07:55:18;21.00;99.90
35682;DHT22;21805;51.022;4.782;2023-07-02T07:57:44;21.00;99.90
35682;DHT22;21805;51.022;4.782;2023-07-02T08:00:10;21.10;99.90
35682;DHT22;21805;51.022;4.782;2023-07-02T08:02:36;21.10;99.90
35682;DHT22;21805;51.022;4.782;2023-07-02T08:05:02;21.10;99.90
35682;DHT22;21805;51.022;4.782;2023-07-02T08:07:28;21.20;99.90
35682;DHT22;21805;51.022;4.782;2023-07-02T08:09:55;21.10;99.90
35682;DHT22;21805;51.022;4.782;2023-07-02T08:12:21;21.10;99.90
35682;DHT22;21805;51.022;4.782;2023-07-02T08:14:46;21.10;99.90
35682;DHT22;21805;51.022;4.782;2023-07-02T08:17:12;21.00;99.90
35682;DHT22;21805;51.022;4.782;2023-07-02T08:19:38;21.00;99.90
35682;DHT22;21805;51.022;4.782;2023-07-02T08:22:03;20.90;99.90
35682;DHT22;21805;51.022;4.782;2023-07-02T08:24:29;21.10;99.90
35682;DHT22;21805;51.022;4.782;2023-07-02T08:26:56;21.40;99.90
35682;DHT22;21805;51.022;4.782;2023-07-02T08:29:22;21.60;99.90
35682;DHT22;21805;51.022;4.782;2023-07-02T08:31:47;21.80;99.90
35682;DHT22;21805;51.022;4.782;2023-07-02T08:34:13;21.90;99.90
35682;DHT22;21805;51.022;4.782;2023-07-02T08:36:38;22.00;99.90
35682;DHT22;21805;51.022;4.782;2023-07-02T08:39:04;22.20;99.90
35682;DHT22;21805;51.022;4.782;2023-07-02T08:41:30;22.40;99.90
35682;DHT22;21805;51.022;4.782;2023-07-02T08:43:56;22.60;99.90
35682;DHT22;21805;51.022;4.782;2023-07-02T08:46:24;22.70;99.90
35682;DHT22;21805;51.022;4.782;2023-07-02T08:48:50;22.70;99.90
35682;DHT22;21805;51.022;4.782;2023-07-02T08:51:16;22.80;99.90
35682;DHT22;21805;51.022;4.782;2023-07-02T08:53:42;22.90;99.90
35682;DHT22;21805;51.022;4.782;2023-07-02T08:56:07;22.80;99.90
35682;DHT22;21805;51.022;4.782;2023-07-02T08:58:33;22.80;99.90
35682;DHT22;21805;51.022;4.782;2023-07-02T09:01:08;22.90;99.90
35682;DHT22;21805;51.022;4.782;2023-07-02T09:03:35;22.80;99.90
35682;DHT22;21805;51.022;4.782;2023-07-02T09:06:03;22.90;99.90
35682;DHT22;21805;51.022;4.782;2023-07-02T09:08:28;22.90;99.90
35682;DHT22;21805;51.022;4.782;2023-07-02T09:10:54;22.80;99.90
35682;DHT22;21805;51.022;4.782;2023-07-02T09:13:20;22.70;99.90
35682;DHT22;21805;51.022;4.782;2023-07-02T09:15:45;22.80;99.90
35682;DHT22;21805;51.022;4.782;2023-07-02T09:18:18;23.20;99.90
35682;DHT22;21805;51.022;4.782;2023-07-02T09:20:43;23.50;99.90
35682;DHT22;21805;51.022;4.782;2023-07-02T09:23:10;23.60;99.90
35682;DHT22;21805;51.022;4.782;2023-07-02T09:25:36;23.30;99.90
35682;DHT22;21805;51.022;4.782;2023-07-02T09:28:02;23.50;99.90
35682;DHT22;21805;51.022;4.782;2023-07-02T09:30:38;23.60;99.90
35682;DHT22;21805;51.022;4.782;2023-07-02T09:33:15;23.40;99.90
35682;DHT22;21805;51.022;4.782;2023-07-02T09:35:40;23.30;99.90
35682;DHT22;21805;51.022;4.782;2023-07-02T09:38:06;23.40;99.90
35682;DHT22;21805;51.022;4.782;2023-07-02T09:40:32;23.70;99.90
35682;DHT22;21805;51.022;4.782;2023-07-02T09:42:58;23.80;99.90
35682;DHT22;21805;51.022;4.782;2023-07-02T09:45:24;23.70;99.90
35682;DHT22;21805;51.022;4.782;2023-07-02T09:47:50;23.40;99.90
35682;DHT22;21805;51.022;4.782;2023-07-02T09:50:17;23.40;99.90
35682;DHT22;21805;51.022;4.782;2023-07-02T09:52:44;23.30;99.90
35682;DHT22;21805;51.022;4.782;2023-07-02T09:55:09;23.20;99.90
35682;DHT22;21805;51.022;4.782;2023-07-02T09:57:35;23.40;99.90
35682;DHT22;21805;51.022;4.782;2023-07-02T10:00:01;23.90;99.90
35682;DHT22;21805;51.022;4.782;2023-07-02T10:02:26;23.80;99.90
35682;DHT22;21805;51.022;4.782;2023-07-02T10:04:52;23.50;99.90
35682;DHT22;21805;51.022;4.782;2023-07-02T10:07:30;23.30;99.90
35682;DHT22;21805;51.022;4.782;2023-07-02T10:09:56;23.00;99.90
35682;DHT22;21805;51.022;4.782;2023-07-02T10:12:22;22.80;99.90
35682;DHT22;21805;51.022;4.782;2023-07-02T10:14:49;22.50;99.90
35682;DHT22;21805;51.022;4.782;2023-07-02T10:19:53;23.10;99.90
35682;DHT22;21805;51.022;4.782;2023-07-02T10:22:19;23.20;99.90
35682;DHT22;21805;51.022;4.782;2023-07-02T10:24:54;23.20;99.90
35682;DHT22;21805;51.022;4.782;2023-07-02T10:27:32;23.10;99.90
35682;DHT22;21805;51.022;4.782;2023-07-02T10:29:58;23.10;99.90
35682;DHT22;21805;51.022;4.782;2023-07-02T10:32:27;22.70;99.90
35682;DHT22;21805;51.022;4.782;2023-07-02T10:34:55;22.60;99.90
35682;DHT22;21805;51.022;4.782;2023-07-02T10:37:21;22.30;99.90
35682;DHT22;21805;51.022;4.782;2023-07-02T10:39:46;22.30;99.90
35682;DHT22;21805;51.022;4.782;2023-07-02T10:42:12;22.30;99.90
35682;DHT22;21805;51.022;4.782;2023-07-02T10:44:48;22.20;99.90
35682;DHT22;21805;51.022;4.782;2023-07-02T10:47:14;22.00;99.90
35682;DHT22;21805;51.022;4.782;2023-07-02T10:49:40;22.10;99.90
35682;DHT22;21805;51.022;4.782;2023-07-02T10:52:05;22.40;99.90
35682;DHT22;21805;51.022;4.782;2023-07-02T10:57:06;23.10;99.90
35682;DHT22;21805;51.022;4.782;2023-07-02T10:59:32;23.10;99.90
35682;DHT22;21805;51.022;4.782;2023-07-02T11:01:58;22.80;99.90
35682;DHT22;21805;51.022;4.782;2023-07-02T11:04:27;22.80;99.90
35682;DHT22;21805;51.022;4.782;2023-07-02T11:06:53;22.90;99.90
35682;DHT22;21805;51.022;4.782;2023-07-02T11:09:19;22.80;99.90
35682;DHT22;21805;51.022;4.782;2023-07-02T11:11:56;22.60;99.90
35682;DHT22;21805;51.022;4.782;2023-07-02T11:14:31;22.30;99.90
35682;DHT22;21805;51.022;4.782;2023-07-02T11:16:57;22.20;99.90
35682;DHT22;21805;51.022;4.782;2023-07-02T11:19:24;22.10;99.90
35682;DHT22;21805;51.022;4.782;2023-07-02T11:21:50;22.00;99.90
35682;DHT22;21805;51.022;4.782;2023-07-02T11:24:26;22.00;99.90
35682;DHT22;21805;51.022;4.782;2023-07-02T11:26:51;22.20;99.90
35682;DHT22;21805;51.022;4.782;2023-07-02T11:29:20;22.40;99.90
35682;DHT22;21805;51.022;4.782;2023-07-02T11:31:46;22.60;99.90
35682;DHT22;21805;51.022;4.782;2023-07-02T11:34:15;22.80;99.90
35682;DHT22;21805;51.022;4.782;2023-07-02T11:36:41;22.90;99.90
35682;DHT22;21805;51.022;4.782;2023-07-02T11:39:07;23.00;99.90
35682;DHT22;21805;51.022;4.782;2023-07-02T11:41:39;23.20;99.90
35682;DHT22;21805;51.022;4.782;2023-07-02T11:44:06;23.30;99.90
35682;DHT22;21805;51.022;4.782;2023-07-02T11:46:32;23.50;99.90
35682;DHT22;21805;51.022;4.782;2023-07-02T11:48:59;23.40;99.90
35682;DHT22;21805;51.022;4.782;2023-07-02T11:51:25;23.40;99.90
35682;DHT22;21805;51.022;4.782;2023-07-02T11:53:50;23.30;99.90
35682;DHT22;21805;51.022;4.782;2023-07-02T11:56:16;23.00;99.90
35682;DHT22;21805;51.022;4.782;2023-07-02T11:58:42;22.80;99.90
35682;DHT22;21805;51.022;4.782;2023-07-02T12:01:07;22.80;99.90
35682;DHT22;21805;51.022;4.782;2023-07-02T12:03:33;22.90;99.90
35682;DHT22;21805;51.022;4.782;2023-07-02T12:05:59;23.10;99.90
35682;DHT22;21805;51.022;4.782;2023-07-02T12:08:24;23.60;99.90
35682;DHT22;21805;51.022;4.782;2023-07-02T12:10:50;24.00;99.90
35682;DHT22;21805;51.022;4.782;2023-07-02T12:13:15;24.10;99.90
35682;DHT22;21805;51.022;4.782;2023-07-02T12:15:41;24.20;99.90
35682;DHT22;21805;51.022;4.782;2023-07-02T12:18:08;23.90;99.90
35682;DHT22;21805;51.022;4.782;2023-07-02T12:20:33;23.70;99.90
35682;DHT22;21805;51.022;4.782;2023-07-02T12:23:00;24.10;99.90
35682;DHT22;21805;51.022;4.782;2023-07-02T12:25:26;24.30;99.90
35682;DHT22;21805;51.022;4.782;2023-07-02T12:27:51;24.30;99.90
35682;DHT22;21805;51.022;4.782;2023-07-02T12:30:17;24.40;99.90
35682;DHT22;21805;51.022;4.782;2023-07-02T12:32:44;24.70;99.90
35682;DHT22;21805;51.022;4.782;2023-07-02T12:35:10;24.90;99.90
35682;DHT22;21805;51.022;4.782;2023-07-02T12:37:35;24.80;99.90
35682;DHT22;21805;51.022;4.782;2023-07-02T12:40:07;24.70;99.90
35682;DHT22;21805;51.022;4.782;2023-07-02T12:42:33;24.50;99.90
35682;DHT22;21805;51.022;4.782;2023-07-02T12:44:59;24.20;99.90
35682;DHT22;21805;51.022;4.782;2023-07-02T12:47:24;24.30;99.90
35682;DHT22;21805;51.022;4.782;2023-07-02T12:49:50;24.50;99.90
35682;DHT22;21805;51.022;4.782;2023-07-02T12:52:15;24.70;99.90
35682;DHT22;21805;51.022;4.782;2023-07-02T12:54:41;24.50;99.90
35682;DHT22;21805;51.022;4.782;2023-07-02T12:57:06;24.30;99.90
35682;DHT22;21805;51.022;4.782;2023-07-02T12:59:32;24.30;99.90
35682;DHT22;21805;51.022;4.782;2023-07-02T13:01:59;24.30;99.90
35682;DHT22;21805;51.022;4.782;2023-07-02T13:04:24;24.20;99.90
35682;DHT22;21805;51.022;4.782;2023-07-02T13:06:50;24.30;99.90
35682;DHT22;21805;51.022;4.782;2023-07-02T13:09:16;24.70;99.90
35682;DHT22;21805;51.022;4.782;2023-07-02T13:11:42;24.70;99.90
35682;DHT22;21805;51.022;4.782;2023-07-02T13:14:09;24.60;99.90
35682;DHT22;21805;51.022;4.782;2023-07-02T13:16:34;24.70;99.90
35682;DHT22;21805;51.022;4.782;2023-07-02T13:19:00;25.20;99.90
35682;DHT22;21805;51.022;4.782;2023-07-02T13:21:27;25.70;99.90
35682;DHT22;21805;51.022;4.782;2023-07-02T13:23:52;26.00;99.90
35682;DHT22;21805;51.022;4.782;2023-07-02T13:26:18;26.10;99.90
35682;DHT22;21805;51.022;4.782;2023-07-02T13:28:45;26.20;99.90
35682;DHT22;21805;51.022;4.782;2023-07-02T13:31:16;26.00;99.90
35682;DHT22;21805;51.022;4.782;2023-07-02T13:33:41;26.10;99.90
35682;DHT22;21805;51.022;4.782;2023-07-02T13:36:08;26.30;99.90
35682;DHT22;21805;51.022;4.782;2023-07-02T13:38:33;26.70;99.90
35682;DHT22;21805;51.022;4.782;2023-07-02T13:40:59;27.10;99.90
35682;DHT22;21805;51.022;4.782;2023-07-02T13:43:25;27.00;99.90
35682;DHT22;21805;51.022;4.782;2023-07-02T13:45:51;27.20;99.90
35682;DHT22;21805;51.022;4.782;2023-07-02T13:48:17;27.40;99.90
35682;DHT22;21805;51.022;4.782;2023-07-02T13:50:42;27.60;99.90
35682;DHT22;21805;51.022;4.782;2023-07-02T13:53:08;27.40;99.90
35682;DHT22;21805;51.022;4.782;2023-07-02T13:55:34;27.10;99.90
35682;DHT22;21805;51.022;4.782;2023-07-02T13:58:01;26.60;99.90
35682;DHT22;21805;51.022;4.782;2023-07-02T14:00:26;26.40;99.90
35682;DHT22;21805;51.022;4.782;2023-07-02T14:02:52;26.00;99.90
35682;DHT22;21805;51.022;4.782;2023-07-02T14:05:19;25.80;99.90
35682;DHT22;21805;51.022;4.782;2023-07-02T14:07:44;25.70;99.90
35682;DHT22;21805;51.022;4.782;2023-07-02T14:10:10;25.90;99.90
35682;DHT22;21805;51.022;4.782;2023-07-02T14:12:38;25.90;99.90
35682;DHT22;21805;51.022;4.782;2023-07-02T14:15:03;25.80;99.90
35682;DHT22;21805;51.022;4.782;2023-07-02T14:17:29;25.80;99.90
35682;DHT22;21805;51.022;4.782;2023-07-02T14:19:55;25.70;99.90
35682;DHT22;21805;51.022;4.782;2023-07-02T14:22:20;25.80;99.90
35682;DHT22;21805;51.022;4.782;2023-07-02T14:24:46;25.90;99.90
35682;DHT22;21805;51.022;4.782;2023-07-02T14:27:11;26.50;99.90
35682;DHT22;21805;51.022;4.782;2023-07-02T14:29:37;26.50;99.90
35682;DHT22;21805;51.022;4.782;2023-07-02T14:32:03;26.40;99.90
35682;DHT22;21805;51.022;4.782;2023-07-02T14:34:29;26.20;99.90
35682;DHT22;21805;51.022;4.782;2023-07-02T14:36:55;26.10;99.90
35682;DHT22;21805;51.022;4.782;2023-07-02T14:39:21;26.30;99.90
35682;DHT22;21805;51.022;4.782;2023-07-02T14:41:48;26.50;99.90
35682;DHT22;21805;51.022;4.782;2023-07-02T14:44:14;26.60;99.90
35682;DHT22;21805;51.022;4.782;2023-07-02T14:46:39;26.80;99.90
35682;DHT22;21805;51.022;4.782;2023-07-02T14:49:05;26.90;99.90
35682;DHT22;21805;51.022;4.782;2023-07-02T14:51:30;26.90;99.90
35682;DHT22;21805;51.022;4.782;2023-07-02T14:53:56;26.50;99.90
35682;DHT22;21805;51.022;4.782;2023-07-02T14:56:22;26.30;99.90
35682;DHT22;21805;51.022;4.782;2023-07-02T14:58:48;26.10;99.90
35682;DHT22;21805;51.022;4.782;2023-07-02T15:01:14;25.70;99.90
35682;DHT22;21805;51.022;4.782;2023-07-02T15:03:40;25.50;99.90
35682;DHT22;21805;51.022;4.782;2023-07-02T15:06:10;25.30;99.90
35682;DHT22;21805;51.022;4.782;2023-07-02T15:08:37;25.30;99.90
35682;DHT22;21805;51.022;4.782;2023-07-02T15:11:02;25.30;99.90
35682;DHT22;21805;51.022;4.782;2023-07-02T15:13:28;25.50;99.90
35682;DHT22;21805;51.022;4.782;2023-07-02T15:15:54;25.90;99.90
35682;DHT22;21805;51.022;4.782;2023-07-02T15:18:19;26.40;99.90
35682;DHT22;21805;51.022;4.782;2023-07-02T15:20:45;26.50;99.90
35682;DHT22;21805;51.022;4.782;2023-07-02T15:23:12;26.60;99.90
35682;DHT22;21805;51.022;4.782;2023-07-02T15:25:37;26.40;99.90
35682;DHT22;21805;51.022;4.782;2023-07-02T15:28:03;26.50;99.90